createdAt,value
2022-10-21T00:00:12.775Z,8.90
2022-10-21T00:02:40.791Z,8.73
2022-10-21T00:05:09.108Z,9.20
2022-10-21T00:07:37.334Z,8.77
2022-10-21T00:10:07.862Z,9.93
2022-10-21T00:12:36.381Z,11.17
2022-10-21T00:15:05.643Z,11.53
2022-10-21T00:17:36.298Z,10.77
2022-10-21T00:20:04.918Z,10.97
2022-10-21T00:22:32.708Z,10.57
2022-10-21T00:25:00.475Z,10.07
2022-10-21T00:27:29.617Z,10.67
2022-10-21T00:29:57.341Z,11.63
2022-10-21T00:32:25.055Z,12.03
2022-10-21T00:34:52.798Z,15.63
2022-10-21T00:37:20.490Z,10.20
2022-10-21T00:39:48.217Z,10.97
2022-10-21T00:42:18.924Z,16.47
2022-10-21T00:47:45.162Z,14.37
2022-10-21T00:50:23.771Z,13.03
2022-10-21T00:52:51.928Z,14.60
2022-10-21T00:55:19.927Z,16.57
2022-10-21T00:57:47.801Z,14.17
2022-10-21T01:00:16.241Z,14.30
2022-10-21T01:02:46.412Z,12.80
2022-10-21T01:05:15.717Z,14.83
2022-10-21T01:07:43.958Z,17.77
2022-10-21T01:10:11.844Z,13.67
2022-10-21T01:12:50.706Z,15.17
2022-10-21T01:15:25.821Z,15.30
2022-10-21T01:18:03.001Z,13.83
2022-10-21T01:20:50.723Z,16.87
2022-10-21T01:23:52.836Z,16.70
2022-10-21T01:26:52.008Z,13.57
2022-10-21T01:29:41.150Z,13.03
2022-10-21T01:32:20.081Z,15.87
2022-10-21T01:34:57.168Z,15.13
2022-10-21T01:37:31.560Z,14.37
2022-10-21T01:40:07.060Z,13.97
2022-10-21T01:42:41.826Z,17.13
2022-10-21T01:45:18.155Z,17.10
2022-10-21T01:47:50.695Z,14.43
2022-10-21T01:50:22.903Z,16.60
2022-10-21T01:52:54.477Z,15.77
2022-10-21T01:55:25.885Z,12.60
2022-10-21T01:58:01.333Z,12.97
2022-10-21T02:00:30.436Z,15.80
2022-10-21T02:03:02.089Z,15.97
2022-10-21T02:05:33.107Z,17.27
2022-10-21T02:08:01.347Z,15.27
2022-10-21T02:10:34.720Z,16.43
2022-10-21T02:13:05.727Z,15.93
2022-10-21T02:15:34.689Z,18.03
2022-10-21T02:18:08.217Z,15.00
2022-10-21T02:20:38.486Z,16.67
2022-10-21T02:23:09.385Z,16.30
2022-10-21T02:25:41.574Z,17.43
2022-10-21T02:28:09.641Z,16.90
2022-10-21T02:30:46.698Z,16.83
2022-10-21T02:33:21.456Z,22.67
2022-10-21T02:36:02.175Z,16.43
2022-10-21T02:38:34.328Z,16.00
2022-10-21T02:41:03.671Z,15.73
2022-10-21T02:43:34.530Z,18.30
2022-10-21T02:46:08.046Z,17.43
2022-10-21T02:48:38.937Z,19.83
2022-10-21T02:51:08.978Z,19.40
2022-10-21T02:53:37.262Z,19.53
2022-10-21T02:56:05.427Z,16.50
2022-10-21T02:58:33.549Z,16.33
2022-10-21T03:01:01.592Z,18.17
2022-10-21T03:03:30.237Z,16.97
2022-10-21T03:05:59.446Z,18.03
2022-10-21T03:08:27.305Z,18.97
2022-10-21T03:10:55.502Z,18.87
2022-10-21T03:13:23.668Z,19.97
2022-10-21T03:15:51.488Z,18.10
2022-10-21T03:18:19.897Z,19.83
2022-10-21T03:20:50.872Z,19.40
2022-10-21T03:23:20.840Z,18.83
2022-10-21T03:25:48.759Z,20.50
2022-10-21T03:28:16.507Z,18.00
2022-10-21T03:30:44.249Z,23.30
2022-10-21T03:33:11.997Z,17.47
2022-10-21T03:35:39.720Z,19.27
2022-10-21T03:38:07.447Z,19.70
2022-10-21T03:40:36.526Z,19.03
2022-10-21T03:43:04.338Z,18.87
2022-10-21T03:45:32.239Z,19.57
2022-10-21T03:47:59.980Z,22.57
2022-10-21T03:50:27.706Z,22.00
2022-10-21T03:52:56.274Z,23.03
2022-10-21T03:55:25.260Z,19.00
2022-10-21T03:57:54.997Z,22.17
2022-10-21T04:00:24.347Z,20.87
2022-10-21T04:02:53.801Z,20.50
2022-10-21T04:05:21.492Z,20.00
2022-10-21T04:07:52.213Z,23.17
2022-10-21T04:10:21.212Z,20.40
2022-10-21T04:12:48.939Z,19.63
2022-10-21T04:15:18.496Z,21.43
2022-10-21T04:17:47.153Z,22.20
2022-10-21T04:20:15.249Z,22.37
2022-10-21T04:22:42.975Z,20.67
2022-10-21T04:25:11.118Z,25.13
2022-10-21T04:27:38.844Z,20.83
2022-10-21T04:30:07.929Z,21.03
2022-10-21T04:32:37.320Z,21.67
2022-10-21T04:35:06.018Z,21.57
2022-10-21T04:37:33.702Z,23.47
2022-10-21T04:40:01.389Z,21.60
2022-10-21T04:42:29.110Z,21.10
2022-10-21T04:44:56.812Z,22.90
2022-10-21T04:47:24.577Z,20.97
2022-10-21T04:49:53.646Z,21.27
2022-10-21T04:52:21.389Z,19.80
2022-10-21T04:54:49.088Z,20.93
2022-10-21T04:57:16.818Z,20.87
2022-10-21T04:59:44.512Z,22.73
2022-10-21T05:02:12.312Z,21.33
2022-10-21T05:04:40.135Z,23.00
2022-10-21T05:07:09.184Z,23.03
2022-10-21T05:09:36.949Z,22.07
2022-10-21T05:12:05.111Z,22.67
2022-10-21T05:14:32.925Z,21.00
2022-10-21T05:17:00.632Z,22.83
2022-10-21T05:19:31.257Z,22.17
2022-10-21T05:21:59.293Z,22.90
2022-10-21T05:24:28.740Z,22.17
2022-10-21T05:26:56.453Z,26.13
2022-10-21T05:29:24.142Z,23.03
2022-10-21T05:31:51.847Z,22.43
2022-10-21T05:34:19.617Z,25.07
2022-10-21T05:36:48.556Z,22.77
2022-10-21T05:39:16.405Z,22.37
2022-10-21T05:41:47.854Z,22.67
2022-10-21T05:44:16.388Z,23.97
2022-10-21T05:46:44.127Z,25.00
2022-10-21T05:49:12.835Z,27.87
2022-10-21T05:51:40.549Z,22.90
2022-10-21T05:54:08.319Z,24.87
2022-10-21T05:56:36.766Z,23.20
2022-10-21T05:59:07.930Z,24.43
2022-10-21T06:01:39.528Z,25.67
2022-10-21T06:04:07.857Z,27.03
2022-10-21T06:06:35.641Z,27.23
2022-10-21T06:09:03.553Z,24.80
2022-10-21T06:11:31.511Z,29.07
2022-10-21T06:13:59.294Z,27.30
2022-10-21T06:16:35.082Z,26.83
2022-10-21T06:19:03.520Z,25.83
2022-10-21T06:21:31.416Z,26.80
2022-10-21T06:23:59.156Z,23.93
2022-10-21T06:26:27.026Z,24.83
2022-10-21T06:28:55.175Z,31.27
2022-10-21T06:31:22.987Z,26.27
2022-10-21T06:33:52.061Z,22.87
2022-10-21T06:36:20.016Z,26.67
2022-10-21T06:38:47.738Z,25.07
2022-10-21T06:41:18.158Z,24.43
2022-10-21T06:43:46.249Z,24.60
2022-10-21T06:46:16.129Z,28.50
2022-10-21T06:48:43.908Z,24.87
2022-10-21T06:51:15.408Z,28.47
2022-10-21T06:53:44.183Z,24.13
2022-10-21T06:56:14.513Z,41.60
2022-10-21T06:58:43.397Z,26.23
2022-10-21T07:01:27.234Z,25.90
2022-10-21T07:04:01.140Z,23.73
2022-10-21T07:06:30.750Z,23.23
2022-10-21T07:08:59.276Z,21.97
2022-10-21T07:11:27.945Z,22.77
2022-10-21T07:13:55.889Z,21.23
2022-10-21T07:16:25.664Z,21.97
2022-10-21T07:18:54.267Z,19.93
2022-10-21T07:21:24.166Z,20.33
2022-10-21T07:23:56.612Z,20.37
2022-10-21T07:26:28.477Z,18.17
2022-10-21T07:28:58.134Z,20.17
2022-10-21T07:31:25.959Z,23.47
2022-10-21T07:33:54.542Z,18.30
2022-10-21T07:36:25.242Z,17.47
2022-10-21T07:38:55.907Z,14.33
2022-10-21T07:41:26.576Z,12.17
2022-10-21T07:43:55.047Z,10.80
2022-10-21T07:46:23.889Z,11.23
2022-10-21T07:48:52.266Z,10.63
2022-10-21T07:51:25.709Z,11.63
2022-10-21T07:53:58.753Z,10.77
2022-10-21T07:56:28.555Z,11.10
2022-10-21T07:58:56.420Z,11.13
2022-10-21T08:01:25.012Z,12.47
2022-10-21T08:03:54.153Z,10.30
2022-10-21T08:06:22.706Z,12.83
2022-10-21T08:08:50.437Z,11.10
2022-10-21T08:11:23.941Z,14.13
2022-10-21T08:13:51.716Z,11.00
2022-10-21T08:16:19.450Z,10.23
2022-10-21T08:18:47.648Z,11.93
2022-10-21T08:21:15.449Z,9.53
2022-10-21T08:23:43.332Z,10.30
2022-10-21T08:26:14.334Z,12.17
2022-10-21T08:28:44.223Z,10.63
2022-10-21T08:31:14.733Z,10.07
2022-10-21T08:33:42.538Z,9.70
2022-10-21T08:36:13.305Z,10.70
2022-10-21T08:38:41.033Z,11.20
2022-10-21T08:41:20.413Z,9.13
2022-10-21T08:43:51.077Z,9.00
2022-10-21T08:46:23.672Z,9.17
2022-10-21T08:48:57.356Z,10.33
2022-10-21T08:51:31.413Z,11.53
2022-10-21T08:54:05.018Z,9.87
2022-10-21T08:56:33.327Z,13.10
2022-10-21T08:59:02.476Z,9.77
2022-10-21T09:01:39.304Z,8.97
2022-10-21T09:04:14.495Z,9.90
2022-10-21T09:06:56.227Z,10.43
2022-10-21T09:09:31.448Z,10.77
2022-10-21T09:12:08.180Z,12.37
2022-10-21T09:14:49.138Z,10.10
2022-10-21T09:17:27.013Z,10.77
2022-10-21T09:20:01.386Z,14.80
2022-10-21T09:22:42.695Z,10.40
2022-10-21T09:25:24.030Z,13.50
2022-10-21T09:27:56.829Z,11.67
2022-10-21T09:30:27.156Z,10.10
2022-10-21T09:32:58.476Z,13.83
2022-10-21T09:35:35.034Z,10.30
2022-10-21T09:38:11.645Z,10.60
2022-10-21T09:40:39.477Z,10.90
2022-10-21T09:43:17.425Z,10.33
2022-10-21T09:45:47.965Z,12.67
2022-10-21T09:48:28.844Z,10.67
2022-10-21T09:51:01.003Z,11.03
2022-10-21T09:53:34.148Z,9.83
2022-10-21T09:56:05.735Z,13.93
2022-10-21T09:58:47.566Z,10.97
2022-10-21T10:01:20.705Z,10.53
2022-10-21T10:03:50.340Z,11.27
2022-10-21T10:06:34.021Z,11.33
2022-10-21T10:09:25.633Z,12.03
2022-10-21T10:11:56.543Z,10.70
2022-10-21T10:14:33.252Z,11.37
2022-10-21T10:17:26.587Z,12.60
2022-10-21T10:20:16.762Z,11.30
2022-10-21T10:22:45.232Z,11.77
2022-10-21T10:25:22.861Z,12.90
2022-10-21T10:27:52.881Z,10.67
2022-10-21T10:30:25.683Z,11.00
2022-10-21T10:32:57.362Z,11.40
2022-10-21T10:35:30.838Z,10.63
2022-10-21T10:38:00.188Z,10.73
2022-10-21T10:40:32.495Z,11.20
2022-10-21T10:43:04.806Z,10.57
2022-10-21T10:45:32.952Z,9.60
2022-10-21T10:48:04.682Z,9.90
2022-10-21T10:50:43.867Z,9.77
2022-10-21T10:53:33.032Z,9.87
2022-10-21T10:56:08.969Z,10.87
2022-10-21T10:58:42.660Z,10.30
2022-10-21T11:01:14.547Z,10.27
2022-10-21T11:03:51.168Z,10.07
2022-10-21T11:06:33.870Z,9.80
2022-10-21T11:09:03.382Z,9.47
2022-10-21T11:11:37.790Z,9.97
2022-10-21T11:14:10.224Z,11.03
2022-10-21T11:17:00.213Z,10.07
2022-10-21T11:19:43.903Z,9.57
2022-10-21T11:22:16.356Z,9.60
2022-10-21T11:24:59.643Z,10.50
2022-10-21T11:27:58.301Z,10.33
2022-10-21T11:30:37.030Z,13.17
2022-10-21T11:33:15.437Z,9.37
2022-10-21T11:35:55.418Z,9.97
2022-10-21T11:38:37.404Z,10.20
2022-10-21T11:41:19.872Z,10.83
2022-10-21T11:43:57.633Z,9.97
2022-10-21T11:46:30.392Z,14.10
2022-10-21T11:49:12.859Z,10.47
2022-10-21T11:51:54.307Z,11.40
2022-10-21T11:54:39.966Z,10.27
2022-10-21T11:57:19.294Z,12.90
2022-10-21T12:00:00.565Z,12.67
2022-10-21T12:05:08.493Z,11.37
2022-10-21T12:07:50.564Z,11.17
2022-10-21T12:10:30.412Z,11.00
2022-10-21T12:13:03.729Z,11.63
2022-10-21T12:15:41.458Z,10.87
2022-10-21T12:18:17.327Z,11.30
2022-10-21T12:20:50.634Z,10.80
2022-10-21T12:23:23.164Z,11.90
2022-10-21T12:26:06.500Z,11.90
2022-10-21T12:28:45.784Z,12.33
2022-10-21T12:31:28.553Z,10.70
2022-10-21T12:33:57.247Z,10.97
2022-10-21T12:36:46.710Z,12.17
2022-10-21T12:39:43.299Z,11.30
2022-10-21T12:42:14.696Z,11.93
2022-10-21T12:44:47.340Z,12.73
2022-10-21T12:47:29.985Z,12.20
2022-10-21T12:50:22.624Z,11.47
2022-10-21T12:53:06.192Z,12.43
2022-10-21T12:55:40.838Z,11.57
2022-10-21T12:58:31.754Z,11.70
2022-10-21T13:01:02.527Z,12.47
2022-10-21T13:03:52.158Z,11.87
2022-10-21T13:06:52.339Z,15.73
2022-10-21T13:09:37.186Z,11.53
2022-10-21T13:12:17.202Z,12.73
2022-10-21T13:14:47.126Z,12.40
2022-10-21T13:17:29.946Z,12.30
2022-10-21T13:20:18.500Z,13.73
2022-10-21T13:22:47.340Z,13.43
2022-10-21T13:25:23.067Z,11.77
2022-10-21T13:27:55.263Z,12.37
2022-10-21T13:30:28.880Z,12.70
2022-10-21T13:33:02.976Z,13.53
2022-10-21T13:35:36.729Z,13.53
2022-10-21T13:38:19.462Z,12.93
2022-10-21T13:40:50.413Z,11.83
2022-10-21T13:43:28.616Z,12.17
2022-10-21T13:46:05.818Z,11.13
2022-10-21T13:48:39.167Z,12.57
2022-10-21T13:51:15.774Z,12.63
2022-10-21T13:53:45.914Z,18.37
2022-10-21T13:56:22.285Z,13.40
2022-10-21T13:58:51.773Z,11.67
2022-10-21T14:01:21.971Z,12.33
2022-10-21T14:03:50.306Z,11.33
2022-10-21T14:06:26.377Z,12.67
2022-10-21T14:08:55.772Z,12.03
2022-10-21T14:11:28.558Z,13.37
2022-10-21T14:14:00.596Z,12.10
2022-10-21T14:16:33.144Z,12.67
2022-10-21T14:19:03.345Z,12.70
2022-10-21T14:21:37.456Z,14.57
2022-10-21T14:24:06.174Z,13.47
2022-10-21T14:26:34.774Z,11.87
2022-10-21T14:29:06.156Z,12.90
2022-10-21T14:31:34.197Z,13.87
2022-10-21T14:34:02.027Z,14.33
2022-10-21T14:36:31.941Z,13.27
2022-10-21T14:39:01.573Z,12.40
2022-10-21T14:41:33.609Z,12.17
2022-10-21T14:44:09.849Z,12.83
2022-10-21T14:46:42.826Z,13.13
2022-10-21T14:49:22.943Z,13.00
2022-10-21T14:51:52.079Z,14.83
2022-10-21T14:54:28.763Z,13.80
2022-10-21T14:56:57.910Z,12.93
2022-10-21T14:59:33.590Z,13.17
2022-10-21T15:02:02.388Z,12.77
2022-10-21T15:04:50.451Z,15.10
2022-10-21T15:10:20.474Z,16.33
2022-10-21T15:12:50.380Z,15.17
2022-10-21T15:15:44.462Z,13.20
2022-10-21T15:18:15.656Z,12.93
2022-10-21T15:20:58.288Z,16.20
2022-10-21T15:23:30.400Z,13.53
2022-10-21T15:26:01.344Z,14.57
2022-10-21T15:28:34.497Z,15.30
2022-10-21T15:31:05.635Z,13.23
2022-10-21T15:33:33.342Z,13.47
2022-10-21T15:36:02.101Z,13.10
2022-10-21T15:38:29.805Z,14.67
2022-10-21T15:40:57.572Z,13.83
2022-10-21T15:43:25.268Z,13.40
2022-10-21T15:45:53.031Z,13.77
2022-10-21T15:48:23.121Z,14.93
2022-10-21T15:50:50.836Z,14.50
2022-10-21T15:53:18.560Z,14.33
2022-10-21T15:55:46.245Z,15.23
2022-10-21T15:58:13.981Z,16.17
2022-10-21T16:00:41.830Z,20.40
2022-10-21T16:03:09.897Z,16.47
2022-10-21T16:05:39.564Z,15.90
2022-10-21T16:08:07.282Z,18.67
2022-10-21T16:10:37.410Z,19.23
2022-10-21T16:13:05.391Z,15.27
2022-10-21T16:15:33.099Z,18.20
2022-10-21T16:18:01.193Z,17.43
2022-10-21T16:20:30.599Z,17.33
2022-10-21T16:23:02.310Z,17.90
2022-10-21T16:25:31.125Z,18.73
2022-10-21T16:27:59.431Z,16.27
2022-10-21T16:30:29.248Z,19.10
2022-10-21T16:32:57.357Z,16.23
2022-10-21T16:35:25.855Z,22.03
2022-10-21T16:37:53.825Z,20.57
2022-10-21T16:40:25.700Z,17.83
2022-10-21T16:42:54.029Z,19.93
2022-10-21T16:45:24.586Z,20.17
2022-10-21T16:47:56.736Z,17.40
2022-10-21T16:50:30.814Z,19.73
2022-10-21T16:52:58.666Z,19.23
2022-10-21T16:55:27.968Z,23.97
2022-10-21T16:57:55.774Z,20.30
2022-10-21T17:00:23.637Z,21.40
2022-10-21T17:02:52.657Z,20.67
2022-10-21T17:05:20.626Z,18.50
2022-10-21T17:07:48.357Z,19.17
2022-10-21T17:10:16.487Z,20.87
2022-10-21T17:12:45.563Z,20.27
2022-10-21T17:15:17.014Z,28.47
2022-10-21T17:17:44.704Z,28.47
2022-10-21T17:20:12.663Z,30.57
2022-10-21T17:22:40.352Z,24.30
2022-10-21T17:25:08.761Z,27.43
2022-10-21T17:27:36.546Z,25.20
2022-10-21T17:30:06.778Z,24.27
2022-10-21T17:32:34.539Z,24.00
2022-10-21T17:35:02.335Z,25.17
2022-10-21T17:37:30.075Z,24.17
2022-10-21T17:39:57.876Z,27.30
2022-10-21T17:42:25.575Z,23.50
2022-10-21T17:44:53.264Z,27.47
2022-10-21T17:47:22.347Z,25.47
2022-10-21T17:49:50.147Z,25.00
2022-10-21T17:52:18.061Z,29.23
2022-10-21T17:54:45.748Z,27.47
2022-10-21T17:57:13.475Z,30.40
2022-10-21T17:59:41.140Z,27.03
2022-10-21T18:02:09.747Z,26.90
2022-10-21T18:04:39.261Z,28.90
2022-10-21T18:07:09.428Z,26.47
2022-10-21T18:09:38.216Z,26.77
2022-10-21T18:12:09.433Z,26.57
2022-10-21T18:14:37.658Z,32.63
2022-10-21T18:17:05.426Z,28.50
2022-10-21T18:19:33.858Z,30.03
2022-10-21T18:22:03.282Z,33.67
2022-10-21T18:24:31.374Z,32.73
2022-10-21T18:26:59.189Z,33.10
2022-10-21T18:29:27.079Z,30.80
2022-10-21T18:31:56.356Z,30.87
2022-10-21T18:34:24.116Z,30.77
2022-10-21T18:39:26.058Z,28.70
2022-10-21T18:41:54.209Z,30.03
2022-10-21T18:44:22.024Z,26.23
2022-10-21T18:46:52.399Z,26.27
2022-10-21T18:49:23.005Z,27.43
2022-10-21T18:51:50.685Z,26.60
2022-10-21T18:54:18.415Z,33.23
2022-10-21T18:56:47.589Z,28.40
2022-10-21T18:59:15.257Z,25.53
2022-10-21T19:01:43.166Z,28.30
2022-10-21T19:04:11.056Z,24.73
2022-10-21T19:06:40.861Z,26.60
2022-10-21T19:09:13.060Z,30.73
2022-10-21T19:11:41.143Z,28.33
2022-10-21T19:14:14.048Z,24.73
2022-10-21T19:16:42.872Z,27.30
2022-10-21T19:19:11.203Z,29.00
2022-10-21T19:21:39.559Z,25.83
2022-10-21T19:24:08.070Z,25.80
2022-10-21T19:26:38.970Z,26.10
2022-10-21T19:29:08.770Z,25.73
2022-10-21T19:31:38.752Z,27.50
2022-10-21T19:34:06.718Z,31.30
2022-10-21T19:36:34.661Z,28.33
2022-10-21T19:39:02.376Z,25.27
2022-10-21T19:41:30.106Z,29.33
2022-10-21T19:43:59.072Z,27.37
2022-10-21T19:46:28.392Z,32.17
2022-10-21T19:48:58.209Z,26.73
2022-10-21T19:51:26.504Z,26.67
2022-10-21T19:53:55.186Z,29.67
2022-10-21T19:56:26.853Z,30.43
2022-10-21T19:58:56.745Z,26.80
2022-10-21T20:01:26.578Z,27.73
2022-10-21T20:03:56.963Z,25.93
2022-10-21T20:06:27.508Z,26.67
2022-10-21T20:08:56.116Z,27.27
2022-10-21T20:11:23.956Z,28.23
2022-10-21T20:13:51.891Z,26.30
2022-10-21T20:16:21.600Z,24.47
2022-10-21T20:18:49.806Z,24.03
2022-10-21T20:21:19.470Z,28.10
2022-10-21T20:23:47.199Z,26.57
2022-10-21T20:26:14.908Z,30.93
2022-10-21T20:28:42.687Z,28.77
2022-10-21T20:31:12.331Z,33.93
2022-10-21T20:33:42.892Z,28.17
2022-10-21T20:36:14.569Z,34.37
2022-10-21T20:38:43.983Z,28.87
2022-10-21T20:41:13.819Z,31.23
2022-10-21T20:43:42.712Z,29.17
2022-10-21T20:46:12.434Z,30.83
2022-10-21T20:48:42.072Z,29.30
2022-10-21T20:51:12.019Z,29.13
2022-10-21T20:53:40.559Z,28.40
2022-10-21T20:56:09.881Z,30.63
2022-10-21T20:58:39.308Z,31.50
2022-10-21T21:01:08.281Z,28.20
2022-10-21T21:03:37.915Z,28.07
2022-10-21T21:06:05.925Z,29.90
2022-10-21T21:08:35.778Z,30.30
2022-10-21T21:11:03.970Z,25.37
2022-10-21T21:13:33.329Z,26.00
2022-10-21T21:16:06.216Z,23.57
2022-10-21T21:18:34.026Z,26.53
2022-10-21T21:21:06.321Z,27.07
2022-10-21T21:23:34.659Z,27.70
2022-10-21T21:26:03.685Z,27.47
2022-10-21T21:28:35.557Z,27.23
2022-10-21T21:31:04.366Z,22.20
2022-10-21T21:33:32.450Z,27.47
2022-10-21T21:36:01.083Z,21.87
2022-10-21T21:38:29.492Z,21.93
2022-10-21T21:40:57.968Z,23.27
2022-10-21T21:43:26.206Z,26.63
2022-10-21T21:45:55.500Z,23.23
2022-10-21T21:48:23.441Z,28.43
2022-10-21T21:50:51.735Z,25.40
2022-10-21T21:53:24.861Z,28.00
2022-10-21T21:55:52.554Z,25.20
2022-10-21T21:58:20.247Z,21.80
2022-10-21T22:00:47.960Z,21.53
2022-10-21T22:03:17.022Z,21.17
2022-10-21T22:05:44.941Z,26.00
2022-10-21T22:08:12.677Z,22.97
2022-10-21T22:10:40.387Z,21.70
2022-10-21T22:13:08.118Z,22.50
2022-10-21T22:15:47.493Z,23.60
2022-10-21T22:18:17.352Z,21.23
2022-10-21T22:20:46.231Z,23.13
2022-10-21T22:23:14.116Z,24.60
2022-10-21T22:25:41.779Z,27.00
2022-10-21T22:28:09.493Z,25.93
2022-10-21T22:30:37.201Z,22.00
2022-10-21T22:33:05.057Z,24.97
2022-10-21T22:35:34.105Z,26.50
2022-10-21T22:38:01.794Z,30.93
2022-10-21T22:40:29.474Z,24.60
2022-10-21T22:42:57.173Z,25.13
2022-10-21T22:45:24.979Z,24.13
2022-10-21T22:47:52.666Z,27.50
2022-10-21T22:50:20.346Z,27.20
2022-10-21T22:52:49.415Z,26.90
2022-10-21T22:55:17.169Z,27.50
2022-10-21T22:57:44.881Z,24.33
2022-10-21T23:00:13.936Z,25.97
2022-10-21T23:02:41.970Z,25.37
2022-10-21T23:05:10.537Z,26.13
2022-10-21T23:07:38.287Z,25.80
2022-10-21T23:10:08.758Z,25.33
2022-10-21T23:12:37.629Z,22.83
2022-10-21T23:15:06.567Z,22.60
2022-10-21T23:17:34.616Z,22.40
2022-10-21T23:20:02.319Z,22.53
2022-10-21T23:22:30.037Z,22.43
2022-10-21T23:24:57.745Z,22.27
2022-10-21T23:27:27.998Z,21.57
2022-10-21T23:29:55.754Z,24.37
2022-10-21T23:32:23.508Z,21.73
2022-10-21T23:34:51.212Z,22.30
2022-10-21T23:39:51.557Z,23.40
2022-10-21T23:42:19.268Z,22.37
2022-10-21T23:44:48.305Z,22.37
2022-10-21T23:47:16.060Z,25.10
2022-10-21T23:49:43.794Z,23.60
2022-10-21T23:52:11.533Z,26.07
2022-10-21T23:54:39.236Z,27.47
2022-10-21T23:57:06.969Z,28.63
2022-10-21T23:59:35.189Z,23.00
